sensor_id;sensor_type;location;lat;lon;timestamp;pressure;altitude;pressure_sealevel;temperature;humidity
43553;BME280;29153;42.696;23.218;2023-02-28T00:01:25;94887.84;;;5.89;100.00
43553;BME280;29153;42.696;23.218;2023-02-28T00:03:53;94887.78;;;5.87;100.00
43553;BME280;29153;42.696;23.218;2023-02-28T00:06:21;94885.59;;;5.84;100.00
43553;BME280;29153;42.696;23.218;2023-02-28T00:08:48;94888.45;;;5.82;100.00
43553;BME280;29153;42.696;23.218;2023-02-28T00:11:16;94894.27;;;5.70;100.00
43553;BME280;29153;42.696;23.218;2023-02-28T00:13:46;94896.86;;;5.68;100.00
43553;BME280;29153;42.696;23.218;2023-02-28T00:16:17;94895.19;;;5.50;100.00
43553;BME280;29153;42.696;23.218;2023-02-28T00:18:44;94895.23;;;5.53;100.00
43553;BME280;29153;42.696;23.218;2023-02-28T00:21:13;94897.13;;;5.55;100.00
43553;BME280;29153;42.696;23.218;2023-02-28T00:23:41;94902.93;;;5.42;100.00
43553;BME280;29153;42.696;23.218;2023-02-28T00:26:09;94895.31;;;5.43;100.00
43553;BME280;29153;42.696;23.218;2023-02-28T00:28:36;94900.48;;;5.38;100.00
43553;BME280;29153;42.696;23.218;2023-02-28T00:31:04;94917.30;;;5.40;100.00
43553;BME280;29153;42.696;23.218;2023-02-28T00:33:31;94917.11;;;5.30;100.00
43553;BME280;29153;42.696;23.218;2023-02-28T00:36:09;94920.69;;;5.26;100.00
43553;BME280;29153;42.696;23.218;2023-02-28T00:38:38;94925.44;;;5.38;100.00
43553;BME280;29153;42.696;23.218;2023-02-28T00:41:06;94921.87;;;5.44;100.00
43553;BME280;29153;42.696;23.218;2023-02-28T00:43:35;94929.12;;;5.52;100.00
43553;BME280;29153;42.696;23.218;2023-02-28T00:46:04;94914.31;;;5.60;100.00
43553;BME280;29153;42.696;23.218;2023-02-28T00:48:32;94920.08;;;5.59;100.00
43553;BME280;29153;42.696;23.218;2023-02-28T00:50:59;94912.31;;;5.53;100.00
43553;BME280;29153;42.696;23.218;2023-02-28T00:53:27;94902.48;;;5.60;100.00
43553;BME280;29153;42.696;23.218;2023-02-28T00:55:55;94920.77;;;5.55;100.00
43553;BME280;29153;42.696;23.218;2023-02-28T00:58:22;94913.69;;;5.55;100.00
43553;BME280;29153;42.696;23.218;2023-02-28T01:00:51;94906.17;;;5.47;100.00
43553;BME280;29153;42.696;23.218;2023-02-28T01:03:20;94909.67;;;5.38;100.00
43553;BME280;29153;42.696;23.218;2023-02-28T01:05:48;94908.52;;;5.46;100.00
43553;BME280;29153;42.696;23.218;2023-02-28T01:08:16;94908.55;;;5.48;100.00
43553;BME280;29153;42.696;23.218;2023-02-28T01:10:44;94906.03;;;5.54;100.00
43553;BME280;29153;42.696;23.218;2023-02-28T01:13:11;94899.46;;;5.54;100.00
43553;BME280;29153;42.696;23.218;2023-02-28T01:15:42;94906.98;;;5.47;100.00
43553;BME280;29153;42.696;23.218;2023-02-28T01:18:09;94904.39;;;5.50;100.00
43553;BME280;29153;42.696;23.218;2023-02-28T01:20:38;94906.39;;;5.45;100.00
43553;BME280;29153;42.696;23.218;2023-02-28T01:23:05;94910.63;;;5.46;100.00
43553;BME280;29153;42.696;23.218;2023-02-28T01:25:35;94906.58;;;5.41;100.00
43553;BME280;29153;42.696;23.218;2023-02-28T01:28:03;94914.50;;;5.44;100.00
43553;BME280;29153;42.696;23.218;2023-02-28T01:30:31;94911.66;;;5.45;100.00
43553;BME280;29153;42.696;23.218;2023-02-28T01:33:00;94910.05;;;5.44;100.00
43553;BME280;29153;42.696;23.218;2023-02-28T01:35:27;94917.23;;;5.49;100.00
43553;BME280;29153;42.696;23.218;2023-02-28T01:37:55;94906.80;;;5.40;100.00
43553;BME280;29153;42.696;23.218;2023-02-28T01:40:22;94903.04;;;5.36;100.00
43553;BME280;29153;42.696;23.218;2023-02-28T01:42:50;94912.56;;;5.39;100.00
43553;BME280;29153;42.696;23.218;2023-02-28T01:45:25;94908.87;;;5.38;100.00
43553;BME280;29153;42.696;23.218;2023-02-28T01:48:05;94855.42;;;5.07;100.00
43553;BME280;29153;42.696;23.218;2023-02-28T01:50:36;94915.95;;;5.37;100.00
43553;BME280;29153;42.696;23.218;2023-02-28T01:53:06;94911.03;;;5.41;100.00
43553;BME280;29153;42.696;23.218;2023-02-28T01:55:35;94909.20;;;5.41;100.00
43553;BME280;29153;42.696;23.218;2023-02-28T01:58:05;94907.09;;;5.41;100.00
43553;BME280;29153;42.696;23.218;2023-02-28T02:00:33;94909.89;;;5.37;100.00
43553;BME280;29153;42.696;23.218;2023-02-28T02:03:09;94906.53;;;5.27;100.00
43553;BME280;29153;42.696;23.218;2023-02-28T02:05:31;94910.95;;;5.24;100.00
43553;BME280;29153;42.696;23.218;2023-02-28T02:08:05;94911.79;;;5.27;100.00
43553;BME280;29153;42.696;23.218;2023-02-28T02:10:42;94905.34;;;5.32;100.00
43553;BME280;29153;42.696;23.218;2023-02-28T02:16:17;94904.97;;;5.40;100.00
43553;BME280;29153;42.696;23.218;2023-02-28T02:25:06;94916.69;;;5.35;100.00
43553;BME280;29153;42.696;23.218;2023-02-28T02:27:48;94909.75;;;5.43;100.00
43553;BME280;29153;42.696;23.218;2023-02-28T02:33:32;94900.19;;;5.37;100.00
43553;BME280;29153;42.696;23.218;2023-02-28T02:39:06;94902.70;;;5.32;100.00
43553;BME280;29153;42.696;23.218;2023-02-28T02:41:56;94909.94;;;5.39;100.00
43553;BME280;29153;42.696;23.218;2023-02-28T02:44:34;94910.23;;;5.40;100.00
43553;BME280;29153;42.696;23.218;2023-02-28T02:47:03;94914.17;;;5.40;100.00
43553;BME280;29153;42.696;23.218;2023-02-28T02:49:32;94921.09;;;5.32;100.00
43553;BME280;29153;42.696;23.218;2023-02-28T02:52:02;94915.73;;;5.27;100.00
43553;BME280;29153;42.696;23.218;2023-02-28T02:54:37;94916.13;;;5.33;100.00
43553;BME280;29153;42.696;23.218;2023-02-28T02:57:46;94914.42;;;5.39;100.00
43553;BME280;29153;42.696;23.218;2023-02-28T02:59:37;94911.80;;;5.39;100.00
43553;BME280;29153;42.696;23.218;2023-02-28T03:02:07;94907.56;;;5.38;100.00
43553;BME280;29153;42.696;23.218;2023-02-28T03:04:50;94909.94;;;5.39;100.00
43553;BME280;29153;42.696;23.218;2023-02-28T03:07:06;94914.86;;;5.36;100.00
43553;BME280;29153;42.696;23.218;2023-02-28T03:09:34;94915.48;;;5.40;100.00
43553;BME280;29153;42.696;23.218;2023-02-28T03:12:07;94921.83;;;5.42;100.00
43553;BME280;29153;42.696;23.218;2023-02-28T03:17:23;94925.37;;;5.47;100.00
43553;BME280;29153;42.696;23.218;2023-02-28T03:22:30;94938.88;;;5.54;100.00
43553;BME280;29153;42.696;23.218;2023-02-28T03:27:31;94942.52;;;5.38;100.00
43553;BME280;29153;42.696;23.218;2023-02-28T03:32:44;94947.52;;;5.40;100.00
43553;BME280;29153;42.696;23.218;2023-02-28T03:35:17;94948.38;;;5.31;100.00
43553;BME280;29153;42.696;23.218;2023-02-28T03:37:48;94947.87;;;5.32;100.00
43553;BME280;29153;42.696;23.218;2023-02-28T03:40:19;94947.66;;;5.33;100.00
43553;BME280;29153;42.696;23.218;2023-02-28T03:42:49;94960.32;;;5.36;100.00
43553;BME280;29153;42.696;23.218;2023-02-28T03:45:24;94961.53;;;5.43;100.00
43553;BME280;29153;42.696;23.218;2023-02-28T03:48:02;94967.30;;;5.42;100.00
43553;BME280;29153;42.696;23.218;2023-02-28T03:50:38;94963.91;;;5.44;100.00
43553;BME280;29153;42.696;23.218;2023-02-28T03:53:25;94966.95;;;5.39;100.00
43553;BME280;29153;42.696;23.218;2023-02-28T03:55:57;94969.69;;;5.32;100.00
43553;BME280;29153;42.696;23.218;2023-02-28T03:58:41;94966.84;;;5.34;100.00
43553;BME280;29153;42.696;23.218;2023-02-28T04:01:14;94968.31;;;5.41;100.00
43553;BME280;29153;42.696;23.218;2023-02-28T04:03:41;94967.69;;;5.37;100.00
43553;BME280;29153;42.696;23.218;2023-02-28T04:06:14;94979.27;;;5.27;100.00
43553;BME280;29153;42.696;23.218;2023-02-28T04:08:42;94973.91;;;5.45;100.00
43553;BME280;29153;42.696;23.218;2023-02-28T04:13:42;94967.95;;;5.49;100.00
43553;BME280;29153;42.696;23.218;2023-02-28T04:16:10;94968.87;;;5.43;100.00
43553;BME280;29153;42.696;23.218;2023-02-28T04:18:39;94969.30;;;5.38;100.00
43553;BME280;29153;42.696;23.218;2023-02-28T04:21:07;94965.51;;;5.45;100.00
43553;BME280;29153;42.696;23.218;2023-02-28T04:23:34;94972.30;;;5.44;100.00
43553;BME280;29153;42.696;23.218;2023-02-28T04:26:02;94970.59;;;5.49;100.00
43553;BME280;29153;42.696;23.218;2023-02-28T04:28:30;94968.16;;;5.34;100.00
43553;BME280;29153;42.696;23.218;2023-02-28T04:31:00;94973.56;;;5.41;100.00
43553;BME280;29153;42.696;23.218;2023-02-28T04:33:28;94966.76;;;5.55;100.00
43553;BME280;29153;42.696;23.218;2023-02-28T04:36:04;94970.63;;;5.52;100.00
43553;BME280;29153;42.696;23.218;2023-02-28T04:38:36;94969.86;;;5.52;100.00
43553;BME280;29153;42.696;23.218;2023-02-28T04:41:11;94977.92;;;5.47;100.00
43553;BME280;29153;42.696;23.218;2023-02-28T04:43:39;94976.20;;;5.41;100.00
43553;BME280;29153;42.696;23.218;2023-02-28T04:46:07;94987.05;;;5.33;100.00
43553;BME280;29153;42.696;23.218;2023-02-28T04:48:37;94984.75;;;5.48;100.00
43553;BME280;29153;42.696;23.218;2023-02-28T04:51:09;94992.07;;;5.46;100.00
43553;BME280;29153;42.696;23.218;2023-02-28T04:53:38;94992.07;;;5.46;100.00
43553;BME280;29153;42.696;23.218;2023-02-28T04:56:07;94992.12;;;5.49;100.00
43553;BME280;29153;42.696;23.218;2023-02-28T04:58:35;94997.33;;;5.46;100.00
43553;BME280;29153;42.696;23.218;2023-02-28T05:01:25;95001.78;;;5.46;100.00
43553;BME280;29153;42.696;23.218;2023-02-28T05:03:54;94990.29;;;5.49;100.00
43553;BME280;29153;42.696;23.218;2023-02-28T05:06:24;94994.23;;;5.49;100.00
43553;BME280;29153;42.696;23.218;2023-02-28T05:08:52;95003.60;;;5.45;100.00
43553;BME280;29153;42.696;23.218;2023-02-28T05:11:30;95000.56;;;5.39;100.00
43553;BME280;29153;42.696;23.218;2023-02-28T05:14:08;94997.84;;;5.46;100.00
43553;BME280;29153;42.696;23.218;2023-02-28T05:16:30;95000.98;;;5.45;100.00
43553;BME280;29153;42.696;23.218;2023-02-28T05:18:58;95003.83;;;5.44;100.00
43553;BME280;29153;42.696;23.218;2023-02-28T05:21:31;95007.59;;;5.48;100.00
43553;BME280;29153;42.696;23.218;2023-02-28T05:24:01;95002.11;;;5.49;100.00
43553;BME280;29153;42.696;23.218;2023-02-28T05:26:29;95015.13;;;5.44;100.00
43553;BME280;29153;42.696;23.218;2023-02-28T05:28:57;95014.58;;;5.42;100.00
43553;BME280;29153;42.696;23.218;2023-02-28T05:31:25;95019.58;;;5.44;100.00
43553;BME280;29153;42.696;23.218;2023-02-28T05:33:52;95019.55;;;5.41;100.00
43553;BME280;29153;42.696;23.218;2023-02-28T05:36:20;95016.96;;;5.44;100.00
43553;BME280;29153;42.696;23.218;2023-02-28T05:38:49;95024.45;;;5.49;100.00
43553;BME280;29153;42.696;23.218;2023-02-28T05:41:18;95024.86;;;5.56;100.00
43553;BME280;29153;42.696;23.218;2023-02-28T05:43:46;95032.56;;;5.60;100.00
43553;BME280;29153;42.696;23.218;2023-02-28T05:46:14;95024.91;;;5.58;100.00
43553;BME280;29153;42.696;23.218;2023-02-28T05:48:46;95031.94;;;5.55;100.00
43553;BME280;29153;42.696;23.218;2023-02-28T05:51:13;95040.27;;;5.64;100.00
43553;BME280;29153;42.696;23.218;2023-02-28T05:53:40;95033.35;;;5.48;100.00
43553;BME280;29153;42.696;23.218;2023-02-28T05:56:08;95040.80;;;5.52;100.00
43553;BME280;29153;42.696;23.218;2023-02-28T05:58:35;95030.05;;;5.65;100.00
43553;BME280;29153;42.696;23.218;2023-02-28T06:01:20;95039.17;;;5.62;100.00
43553;BME280;29153;42.696;23.218;2023-02-28T06:03:49;95037.58;;;5.61;100.00
43553;BME280;29153;42.696;23.218;2023-02-28T06:06:16;95037.64;;;5.64;100.00
43553;BME280;29153;42.696;23.218;2023-02-28T06:08:44;95035.86;;;5.67;100.00
43553;BME280;29153;42.696;23.218;2023-02-28T06:11:12;95036.27;;;5.73;100.00
43553;BME280;29153;42.696;23.218;2023-02-28T06:13:39;95044.71;;;5.75;100.00
43553;BME280;29153;42.696;23.218;2023-02-28T06:16:09;95037.48;;;5.82;100.00
43553;BME280;29153;42.696;23.218;2023-02-28T06:18:38;95043.80;;;5.81;100.00
43553;BME280;29153;42.696;23.218;2023-02-28T06:21:06;95037.85;;;5.85;100.00
43553;BME280;29153;42.696;23.218;2023-02-28T06:23:35;95045.16;;;5.83;100.00
43553;BME280;29153;42.696;23.218;2023-02-28T06:26:02;95045.63;;;5.80;100.00
43553;BME280;29153;42.696;23.218;2023-02-28T06:28:30;95043.11;;;5.85;100.00
43553;BME280;29153;42.696;23.218;2023-02-28T06:30:57;95042.53;;;5.83;100.00
43553;BME280;29153;42.696;23.218;2023-02-28T06:33:25;95043.00;;;5.92;100.00
43553;BME280;29153;42.696;23.218;2023-02-28T06:35:53;95041.69;;;5.92;100.00
43553;BME280;29153;42.696;23.218;2023-02-28T06:38:21;95048.59;;;5.95;100.00
43553;BME280;29153;42.696;23.218;2023-02-28T06:40:56;95058.42;;;6.00;100.00
43553;BME280;29153;42.696;23.218;2023-02-28T06:43:25;95057.69;;;6.02;100.00
43553;BME280;29153;42.696;23.218;2023-02-28T06:45:55;95057.84;;;6.10;100.00
43553;BME280;29153;42.696;23.218;2023-02-28T06:48:23;95059.08;;;6.19;100.00
43553;BME280;29153;42.696;23.218;2023-02-28T06:50:51;95058.31;;;6.21;100.00
43553;BME280;29153;42.696;23.218;2023-02-28T06:53:18;95062.95;;;6.28;100.00
43553;BME280;29153;42.696;23.218;2023-02-28T06:55:46;95058.85;;;6.34;100.00
43553;BME280;29153;42.696;23.218;2023-02-28T06:58:13;95065.57;;;6.42;100.00
43553;BME280;29153;42.696;23.218;2023-02-28T07:00:52;95065.51;;;6.25;100.00
43553;BME280;29153;42.696;23.218;2023-02-28T07:03:20;95069.56;;;6.30;100.00
43553;BME280;29153;42.696;23.218;2023-02-28T07:05:47;95066.12;;;6.30;100.00
43553;BME280;29153;42.696;23.218;2023-02-28T07:08:15;95061.40;;;6.44;100.00
43553;BME280;29153;42.696;23.218;2023-02-28T07:10:42;95071.02;;;6.38;100.00
43553;BME280;29153;42.696;23.218;2023-02-28T07:13:10;95066.23;;;6.35;100.00
43553;BME280;29153;42.696;23.218;2023-02-28T07:15:39;95067.33;;;6.36;100.00
43553;BME280;29153;42.696;23.218;2023-02-28T07:18:06;95073.32;;;6.34;100.00
43553;BME280;29153;42.696;23.218;2023-02-28T07:20:34;95067.88;;;6.24;100.00
43553;BME280;29153;42.696;23.218;2023-02-28T07:23:02;95075.16;;;6.34;100.00
43553;BME280;29153;42.696;23.218;2023-02-28T07:25:29;95073.10;;;6.36;100.00
43553;BME280;29153;42.696;23.218;2023-02-28T07:27:57;95079.86;;;6.32;100.00
43553;BME280;29153;42.696;23.218;2023-02-28T07:30:25;95074.92;;;6.35;100.00
43553;BME280;29153;42.696;23.218;2023-02-28T07:32:52;95065.83;;;6.40;100.00
43553;BME280;29153;42.696;23.218;2023-02-28T07:35:22;95070.32;;;6.43;100.00
43553;BME280;29153;42.696;23.218;2023-02-28T07:37:50;95078.69;;;6.39;100.00
43553;BME280;29153;42.696;23.218;2023-02-28T07:40:17;95073.53;;;6.45;100.00
43553;BME280;29153;42.696;23.218;2023-02-28T07:42:45;95074.66;;;6.49;100.00
43553;BME280;29153;42.696;23.218;2023-02-28T07:45:12;95078.71;;;6.54;100.00
43553;BME280;29153;42.696;23.218;2023-02-28T07:47:41;95074.38;;;6.48;100.00
43553;BME280;29153;42.696;23.218;2023-02-28T07:50:11;95071.69;;;6.59;100.00
43553;BME280;29153;42.696;23.218;2023-02-28T07:52:39;95067.70;;;6.57;100.00
43553;BME280;29153;42.696;23.218;2023-02-28T07:55:08;95067.55;;;6.63;100.00
43553;BME280;29153;42.696;23.218;2023-02-28T07:57:36;95068.00;;;6.58;100.00
43553;BME280;29153;42.696;23.218;2023-02-28T08:00:09;95067.62;;;6.66;100.00
43553;BME280;29153;42.696;23.218;2023-02-28T08:02:37;95062.26;;;6.75;100.00
43553;BME280;29153;42.696;23.218;2023-02-28T08:05:05;95063.38;;;6.79;100.00
43553;BME280;29153;42.696;23.218;2023-02-28T08:07:32;95059.72;;;6.80;100.00
43553;BME280;29153;42.696;23.218;2023-02-28T08:10:00;95060.84;;;6.84;100.00
43553;BME280;29153;42.696;23.218;2023-02-28T08:12:28;95068.55;;;6.88;100.00
43553;BME280;29153;42.696;23.218;2023-02-28T08:14:55;95064.02;;;7.00;100.00
43553;BME280;29153;42.696;23.218;2023-02-28T08:17:22;95064.75;;;7.12;100.00
43553;BME280;29153;42.696;23.218;2023-02-28T08:19:50;95071.22;;;7.21;100.00
43553;BME280;29153;42.696;23.218;2023-02-28T08:22:17;95071.42;;;7.17;100.00
43553;BME280;29153;42.696;23.218;2023-02-28T08:24:45;95075.52;;;7.27;100.00
43553;BME280;29153;42.696;23.218;2023-02-28T08:27:12;95079.52;;;7.13;100.00
43553;BME280;29153;42.696;23.218;2023-02-28T08:29:40;95079.64;;;7.21;100.00
43553;BME280;29153;42.696;23.218;2023-02-28T08:32:07;95080.48;;;7.41;100.00
43553;BME280;29153;42.696;23.218;2023-02-28T08:34:35;95082.88;;;7.42;100.00
43553;BME280;29153;42.696;23.218;2023-02-28T08:37:02;95084.44;;;7.41;100.00
43553;BME280;29153;42.696;23.218;2023-02-28T08:39:30;95077.21;;;7.33;100.00
43553;BME280;29153;42.696;23.218;2023-02-28T08:41:57;95078.62;;;7.39;100.00
43553;BME280;29153;42.696;23.218;2023-02-28T08:44:25;95078.22;;;7.47;100.00
43553;BME280;29153;42.696;23.218;2023-02-28T08:46:53;95082.28;;;7.38;100.00
43553;BME280;29153;42.696;23.218;2023-02-28T08:49:21;95076.41;;;7.50;100.00
43553;BME280;29153;42.696;23.218;2023-02-28T08:51:48;95079.16;;;7.41;100.00
43553;BME280;29153;42.696;23.218;2023-02-28T08:54:21;95076.92;;;7.49;100.00
43553;BME280;29153;42.696;23.218;2023-02-28T08:56:49;95074.80;;;7.49;100.00
43553;BME280;29153;42.696;23.218;2023-02-28T08:59:20;95076.18;;;7.51;100.00
43553;BME280;29153;42.696;23.218;2023-02-28T09:01:47;95079.52;;;7.63;100.00
43553;BME280;29153;42.696;23.218;2023-02-28T09:04:16;95083.77;;;7.64;100.00
43553;BME280;29153;42.696;23.218;2023-02-28T09:06:44;95080.73;;;7.56;100.00
43553;BME280;29153;42.696;23.218;2023-02-28T09:09:11;95078.81;;;7.51;100.00
43553;BME280;29153;42.696;23.218;2023-02-28T09:11:45;95076.47;;;7.52;100.00
43553;BME280;29153;42.696;23.218;2023-02-28T09:14:12;95076.47;;;7.52;100.00
43553;BME280;29153;42.696;23.218;2023-02-28T09:16:40;95073.96;;;7.62;100.00
43553;BME280;29153;42.696;23.218;2023-02-28T09:19:12;95075.16;;;7.71;100.00
43553;BME280;29153;42.696;23.218;2023-02-28T09:21:40;95073.12;;;7.76;100.00
43553;BME280;29153;42.696;23.218;2023-02-28T09:24:07;95072.31;;;7.75;100.00
43553;BME280;29153;42.696;23.218;2023-02-28T09:26:35;95075.95;;;7.72;100.00
43553;BME280;29153;42.696;23.218;2023-02-28T09:29:04;95071.07;;;7.81;100.00
43553;BME280;29153;42.696;23.218;2023-02-28T09:31:32;95072.23;;;7.87;100.00
43553;BME280;29153;42.696;23.218;2023-02-28T09:34:00;95071.66;;;7.85;100.00
43553;BME280;29153;42.696;23.218;2023-02-28T09:36:28;95076.76;;;7.92;100.00
43553;BME280;29153;42.696;23.218;2023-02-28T09:38:56;95073.50;;;7.85;100.00
43553;BME280;29153;42.696;23.218;2023-02-28T09:41:25;95068.72;;;7.82;100.00
43553;BME280;29153;42.696;23.218;2023-02-28T09:43:56;95070.55;;;8.00;100.00
43553;BME280;29153;42.696;23.218;2023-02-28T09:46:40;95069.06;;;8.07;100.00
43553;BME280;29153;42.696;23.218;2023-02-28T09:49:11;95062.45;;;8.04;100.00
43553;BME280;29153;42.696;23.218;2023-02-28T09:54:16;95064.77;;;8.22;100.00
43553;BME280;29153;42.696;23.218;2023-02-28T09:56:49;95065.55;;;8.20;100.00
43553;BME280;29153;42.696;23.218;2023-02-28T10:04:59;95050.62;;;8.75;100.00
43553;BME280;29153;42.696;23.218;2023-02-28T10:10:39;95053.77;;;8.98;100.00
43553;BME280;29153;42.696;23.218;2023-02-28T10:13:13;95043.09;;;9.18;100.00
43553;BME280;29153;42.696;23.218;2023-02-28T10:15:42;95041.55;;;9.22;100.00
43553;BME280;29153;42.696;23.218;2023-02-28T10:18:12;95039.00;;;9.34;100.00
43553;BME280;29153;42.696;23.218;2023-02-28T10:20:41;95041.70;;;9.42;100.00
43553;BME280;29153;42.696;23.218;2023-02-28T10:23:25;95037.81;;;9.49;100.00
43553;BME280;29153;42.696;23.218;2023-02-28T10:25:58;95034.73;;;9.65;100.00
43553;BME280;29153;42.696;23.218;2023-02-28T10:28:27;95028.80;;;9.87;100.00
43553;BME280;29153;42.696;23.218;2023-02-28T10:30:57;95026.77;;;10.04;99.36
43553;BME280;29153;42.696;23.218;2023-02-28T10:33:28;95018.17;;;10.29;99.24
43553;BME280;29153;42.696;23.218;2023-02-28T10:35:54;95013.94;;;10.36;98.36
43553;BME280;29153;42.696;23.218;2023-02-28T10:38:26;95012.66;;;10.46;96.29
43553;BME280;29153;42.696;23.218;2023-02-28T10:41:17;95008.14;;;10.41;96.56
43553;BME280;29153;42.696;23.218;2023-02-28T10:43:42;95002.91;;;10.67;97.32
43553;BME280;29153;42.696;23.218;2023-02-28T10:46:13;95000.27;;;10.74;96.70
43553;BME280;29153;42.696;23.218;2023-02-28T10:48:50;94965.31;;;10.87;95.59
43553;BME280;29153;42.696;23.218;2023-02-28T10:51:18;94992.36;;;11.05;96.49
43553;BME280;29153;42.696;23.218;2023-02-28T10:53:49;94986.53;;;11.25;95.38
43553;BME280;29153;42.696;23.218;2023-02-28T10:56:20;94980.16;;;11.44;94.64
43553;BME280;29153;42.696;23.218;2023-02-28T10:58:51;94984.13;;;11.57;91.64
43553;BME280;29153;42.696;23.218;2023-02-28T11:01:21;94975.38;;;11.59;91.72
43553;BME280;29153;42.696;23.218;2023-02-28T11:03:50;94967.66;;;11.80;93.40
43553;BME280;29153;42.696;23.218;2023-02-28T11:06:21;94965.77;;;11.91;92.20
43553;BME280;29153;42.696;23.218;2023-02-28T11:09:02;94962.84;;;11.90;90.54
43553;BME280;29153;42.696;23.218;2023-02-28T11:11:27;94962.48;;;12.16;90.27
43553;BME280;29153;42.696;23.218;2023-02-28T11:14:14;94963.94;;;11.83;87.66
43553;BME280;29153;42.696;23.218;2023-02-28T11:16:34;94960.23;;;11.79;85.38
43553;BME280;29153;42.696;23.218;2023-02-28T11:19:05;94931.81;;;11.82;88.26
43553;BME280;29153;42.696;23.218;2023-02-28T11:21:37;94956.76;;;11.81;86.62
43553;BME280;29153;42.696;23.218;2023-02-28T11:26:45;94948.02;;;11.66;85.96
43553;BME280;29153;42.696;23.218;2023-02-28T11:29:26;94948.02;;;11.78;85.14
43553;BME280;29153;42.696;23.218;2023-02-28T11:32:09;94947.41;;;11.99;85.16
43553;BME280;29153;42.696;23.218;2023-02-28T11:34:36;94948.99;;;12.05;84.70
43553;BME280;29153;42.696;23.218;2023-02-28T11:37:05;94939.41;;;12.07;85.03
43553;BME280;29153;42.696;23.218;2023-02-28T11:39:33;94941.78;;;12.11;85.38
43553;BME280;29153;42.696;23.218;2023-02-28T11:47:32;94945.73;;;12.21;81.58
43553;BME280;29153;42.696;23.218;2023-02-28T11:50:16;94943.88;;;12.21;81.89
43553;BME280;29153;42.696;23.218;2023-02-28T11:52:57;94937.02;;;12.08;84.71
43553;BME280;29153;42.696;23.218;2023-02-28T11:55:41;94942.56;;;12.19;83.25
43553;BME280;29153;42.696;23.218;2023-02-28T11:58:17;94943.39;;;12.14;83.94
43553;BME280;29153;42.696;23.218;2023-02-28T12:06:31;94936.27;;;12.02;82.30
43553;BME280;29153;42.696;23.218;2023-02-28T12:11:43;94933.10;;;11.98;82.62
43553;BME280;29153;42.696;23.218;2023-02-28T12:14:22;94935.23;;;11.93;84.46
43553;BME280;29153;42.696;23.218;2023-02-28T12:20:11;94929.40;;;11.94;82.01
43553;BME280;29153;42.696;23.218;2023-02-28T12:22:44;94932.86;;;11.86;83.95
43553;BME280;29153;42.696;23.218;2023-02-28T12:25:30;94926.09;;;12.17;84.21
43553;BME280;29153;42.696;23.218;2023-02-28T12:27:53;94936.30;;;11.92;81.67
43553;BME280;29153;42.696;23.218;2023-02-28T12:30:30;94932.09;;;11.71;82.72
43553;BME280;29153;42.696;23.218;2023-02-28T12:33:16;94931.19;;;12.08;83.52
43553;BME280;29153;42.696;23.218;2023-02-28T12:35:26;94936.33;;;11.82;80.76
43553;BME280;29153;42.696;23.218;2023-02-28T12:38:14;94931.50;;;11.94;81.09
43553;BME280;29153;42.696;23.218;2023-02-28T12:41:05;94926.22;;;11.86;80.92
43553;BME280;29153;42.696;23.218;2023-02-28T12:43:18;94919.09;;;11.79;81.80
43553;BME280;29153;42.696;23.218;2023-02-28T12:45:53;94932.10;;;11.73;80.96
43553;BME280;29153;42.696;23.218;2023-02-28T12:48:42;94920.94;;;11.84;82.49
43553;BME280;29153;42.696;23.218;2023-02-28T12:51:09;94922.94;;;12.15;82.44
43553;BME280;29153;42.696;23.218;2023-02-28T12:53:54;94916.76;;;12.24;81.72
43553;BME280;29153;42.696;23.218;2023-02-28T12:56:43;94919.98;;;12.16;80.55
43553;BME280;29153;42.696;23.218;2023-02-28T13:01:59;94910.09;;;12.32;81.17
43553;BME280;29153;42.696;23.218;2023-02-28T13:05:06;94915.52;;;12.07;78.81
43553;BME280;29153;42.696;23.218;2023-02-28T13:10:19;94910.48;;;12.10;79.84
43553;BME280;29153;42.696;23.218;2023-02-28T13:12:56;94910.51;;;12.00;80.51
43553;BME280;29153;42.696;23.218;2023-02-28T13:15:25;94902.79;;;12.04;80.49
43553;BME280;29153;42.696;23.218;2023-02-28T13:17:53;94916.97;;;11.71;78.84
43553;BME280;29153;42.696;23.218;2023-02-28T13:20:26;94909.70;;;12.05;80.44
43553;BME280;29153;42.696;23.218;2023-02-28T13:22:55;94907.27;;;12.13;80.61
43553;BME280;29153;42.696;23.218;2023-02-28T13:28:13;94899.70;;;11.84;79.89
43553;BME280;29153;42.696;23.218;2023-02-28T13:33:30;94903.09;;;11.97;79.97
43553;BME280;29153;42.696;23.218;2023-02-28T13:38:48;94904.95;;;11.97;77.77
43553;BME280;29153;42.696;23.218;2023-02-28T13:44:19;94886.10;;;11.96;78.36
43553;BME280;29153;42.696;23.218;2023-02-28T13:49:26;94883.80;;;11.66;78.38
43553;BME280;29153;42.696;23.218;2023-02-28T13:57:53;94871.33;;;11.74;78.90
43553;BME280;29153;42.696;23.218;2023-02-28T14:00:31;94877.70;;;11.76;78.64
43553;BME280;29153;42.696;23.218;2023-02-28T14:06:18;94877.94;;;11.84;77.91
43553;BME280;29153;42.696;23.218;2023-02-28T14:11:33;94891.52;;;11.63;77.73
43553;BME280;29153;42.696;23.218;2023-02-28T14:14:03;94879.84;;;11.56;78.63
43553;BME280;29153;42.696;23.218;2023-02-28T14:16:48;94877.20;;;11.59;79.84
43553;BME280;29153;42.696;23.218;2023-02-28T14:19:27;94879.58;;;11.63;79.09
43553;BME280;29153;42.696;23.218;2023-02-28T14:22:04;94888.86;;;11.55;78.14
43553;BME280;29153;42.696;23.218;2023-02-28T14:27:31;94871.64;;;11.53;79.39
43553;BME280;29153;42.696;23.218;2023-02-28T14:35:45;94868.55;;;11.13;79.69
43553;BME280;29153;42.696;23.218;2023-02-28T14:38:16;94877.83;;;11.20;80.39
43553;BME280;29153;42.696;23.218;2023-02-28T14:40:40;94884.75;;;10.93;80.13
43553;BME280;29153;42.696;23.218;2023-02-28T14:43:27;94883.42;;;10.93;80.65
43553;BME280;29153;42.696;23.218;2023-02-28T14:45:41;94873.88;;;10.80;81.88
43553;BME280;29153;42.696;23.218;2023-02-28T14:48:11;94876.02;;;10.85;81.57